Time;durP1;ratioP1;P1;durP2;ratioP2;P2;SDS_P1;SDS_P2;PMS_P1;PMS_P2;Temp;Humidity;BMP_temperature;BMP_pressure;BME280_temperature;BME280_humidity;BME280_pressure;Samples;Min_cycle;Max_cycle;Signal;HPM_P1;HPM_P2
2022/11/02 00:03:11;;;;;;;50.63;32.03;;;10.90;99.90;;;;;;10040579;29;20232;-91
2022/11/02 00:08:13;;;;;;;47.97;28.80;;;10.90;99.90;;;;;;10041000;29;20268;-90
2022/11/02 00:13:16;;;;;;;36.80;24.63;;;10.50;99.90;;;;;;10057401;29;20280;-90
2022/11/02 00:18:18;;;;;;;38.43;25.60;;;10.50;99.90;;;;;;10039249;29;20243;-91
2022/11/02 00:23:21;;;;;;;36.43;23.53;;;10.50;99.90;;;;;;10038698;29;20279;-90
2022/11/02 00:28:24;;;;;;;36.17;22.37;;;10.40;99.90;;;;;;10017285;29;20232;-90
2022/11/02 00:33:26;;;;;;;34.27;20.93;;;10.50;99.90;;;;;;10045029;29;20210;-90
2022/11/02 00:38:30;;;;;;;39.80;22.13;;;10.60;99.90;;;;;;10046241;29;20299;-91
2022/11/02 00:43:33;;;;;;;35.07;20.37;;;10.60;99.90;;;;;;10033478;29;20213;-90
2022/11/02 00:48:36;;;;;;;36.07;22.47;;;10.90;99.90;;;;;;10007632;29;20240;-90
2022/11/02 00:53:38;;;;;;;32.13;21.30;;;10.90;99.90;;;;;;10024350;29;20230;-90
2022/11/02 00:58:41;;;;;;;30.47;20.37;;;10.90;99.90;;;;;;10038978;29;20215;-90
2022/11/02 01:03:45;;;;;;;29.30;18.83;;;10.80;99.90;;;;;;10029886;29;20264;-90
2022/11/02 01:08:48;;;;;;;26.77;19.37;;;10.80;99.90;;;;;;10045472;29;20255;-90
2022/11/02 01:13:53;;;;;;;25.50;17.83;;;10.90;99.90;;;;;;10061742;29;20258;-90
2022/11/02 01:18:56;;;;;;;24.80;17.10;;;10.80;99.90;;;;;;10061608;29;20219;-90
2022/11/02 01:23:58;;;;;;;28.37;17.63;;;10.70;99.90;;;;;;10044171;29;20380;-90
2022/11/02 01:29:01;;;;;;;24.60;16.57;;;10.50;99.90;;;;;;10044080;29;20243;-90
2022/11/02 01:34:03;;;;;;;25.30;16.77;;;10.60;99.90;;;;;;10025471;29;20270;-90
2022/11/02 01:39:06;;;;;;;22.97;15.37;;;10.60;99.90;;;;;;10060689;29;20240;-90
2022/11/02 01:44:42;;;;;;;27.13;15.70;;;10.60;99.90;;;;;;10060369;29;20214;-90
2022/11/02 01:49:48;;;;;;;24.00;15.57;;;10.60;99.90;;;;;;9905018;30;20264;-90
2022/11/02 01:55:00;;;;;;;21.17;14.00;;;10.50;99.90;;;;;;9905241;30;20311;-90
2022/11/02 02:00:11;;;;;;;23.37;14.97;;;10.40;99.90;;;;;;9905007;30;20217;-90
2022/11/02 02:05:18;;;;;;;27.07;14.47;;;10.40;99.90;;;;;;9909594;29;20627;-90
2022/11/02 02:10:20;;;;;;;20.23;14.27;;;10.10;99.90;;;;;;9888814;30;20297;-90
2022/11/02 02:15:30;;;;;;;22.37;13.90;;;9.80;99.90;;;;;;9865292;30;20213;-90
2022/11/02 02:21:00;;;;;;;21.23;13.37;;;9.70;99.90;;;;;;9852409;30;20220;-90
2022/11/02 02:26:45;;;;;;;19.57;13.27;;;9.50;99.90;;;;;;10006405;29;20263;-89
2022/11/02 02:32:09;;;;;;;21.57;14.93;;;9.40;99.90;;;;;;10047275;29;20325;-91
2022/11/02 02:37:39;;;;;;;23.67;15.93;;;9.50;99.90;;;;;;10016345;29;20283;-90
2022/11/02 02:43:02;;;;;;;17.57;12.93;;;9.40;99.90;;;;;;10001341;29;20214;-90
2022/11/02 02:48:14;;;;;;;89.00;18.10;;;9.40;99.90;;;;;;10026995;29;20214;-90
2022/11/02 02:53:23;;;;;;;19.73;12.77;;;9.00;99.90;;;;;;10037004;29;20711;-90
2022/11/02 02:58:30;;;;;;;43.17;15.93;;;8.80;99.90;;;;;;10037572;29;20312;-90
2022/11/02 03:03:33;;;;;;;36.80;15.07;;;8.90;99.90;;;;;;10026107;29;20269;-90
2022/11/02 03:08:38;;;;;;;26.97;13.10;;;8.80;99.90;;;;;;10054380;29;20253;-90
2022/11/02 03:14:08;;;;;;;21.87;13.13;;;8.80;99.90;;;;;;10037523;29;20262;-90
2022/11/02 03:19:23;;;;;;;37.13;14.10;;;8.60;99.90;;;;;;10036542;29;20243;-90
2022/11/02 03:24:34;;;;;;;29.53;15.83;;;8.60;99.90;;;;;;10007668;29;20269;-90
2022/11/02 03:29:50;;;;;;;32.00;19.17;;;9.10;99.90;;;;;;10019990;29;20262;-90
2022/11/02 03:35:01;;;;;;;50.90;22.33;;;9.30;99.90;;;;;;9999322;29;20688;-91
2022/11/02 03:40:12;;;;;;;55.63;21.97;;;9.60;99.90;;;;;;10017624;29;20301;-90
2022/11/02 03:45:23;;;;;;;69.10;23.23;;;9.80;99.90;;;;;;10034885;29;20214;-90
2022/11/02 03:50:27;;;;;;;71.60;25.10;;;9.90;99.90;;;;;;10034110;29;20730;-90
2022/11/02 03:55:34;;;;;;;95.27;26.93;;;10.00;99.90;;;;;;10034929;29;20313;-90
2022/11/02 04:00:47;;;;;;;99.57;26.50;;;10.00;99.90;;;;;;10034499;29;20217;-90
2022/11/02 04:05:50;;;;;;;78.47;26.03;;;10.10;99.90;;;;;;10053700;29;20276;-90
2022/11/02 04:16:25;;;;;;;121.83;29.00;;;10.20;99.90;;;;;;10038314;29;20708;-90
2022/11/02 04:21:31;;;;;;;86.57;25.93;;;10.20;99.90;;;;;;10036841;29;20250;-89
2022/11/02 04:26:35;;;;;;;108.13;28.13;;;10.20;99.90;;;;;;10003220;29;20306;-90
2022/11/02 04:31:38;;;;;;;78.57;26.03;;;10.10;99.90;;;;;;10041095;29;20282;-90
2022/11/02 04:36:43;;;;;;;108.40;29.37;;;10.20;99.90;;;;;;10040524;29;20254;-90
2022/11/02 04:41:46;;;;;;;86.00;27.23;;;10.30;99.90;;;;;;10027788;29;20306;-90
2022/11/02 04:46:55;;;;;;;63.20;27.37;;;10.20;99.90;;;;;;10020659;29;20252;-90
2022/11/02 04:52:01;;;;;;;65.60;26.83;;;10.20;99.90;;;;;;10038763;29;20265;-90
2022/11/02 04:57:05;;;;;;;68.70;28.30;;;10.20;99.90;;;;;;10020998;29;20262;-90
2022/11/02 05:02:08;;;;;;;60.60;25.23;;;10.20;99.90;;;;;;10038722;29;20249;-90
2022/11/02 05:07:12;;;;;;;57.77;24.43;;;10.10;99.90;;;;;;10039222;29;20320;-90
2022/11/02 05:12:15;;;;;;;92.20;27.53;;;10.10;99.90;;;;;;10024141;29;20731;-91
2022/11/02 05:17:17;;;;;;;67.60;23.03;;;10.00;99.90;;;;;;10054061;29;20275;-89
2022/11/02 05:22:20;;;;;;;50.17;21.17;;;10.10;99.90;;;;;;10049799;29;20249;-89
2022/11/02 05:27:23;;;;;;;59.23;24.03;;;10.70;99.90;;;;;;10038378;29;20299;-90
2022/11/02 05:32:27;;;;;;;40.03;23.73;;;10.20;99.90;;;;;;10023434;29;20269;-90
2022/11/02 05:37:29;;;;;;;59.03;21.77;;;12.60;99.90;;;;;;10055188;29;20252;-89
2022/11/02 05:42:33;;;;;;;48.80;20.57;;;10.40;99.90;;;;;;10038849;29;20267;-90
2022/11/02 05:47:37;;;;;;;46.10;20.30;;;10.30;99.90;;;;;;10037628;29;20289;-89
2022/11/02 05:52:39;;;;;;;39.57;18.40;;;10.50;99.90;;;;;;10037315;29;20539;-90
2022/11/02 05:57:42;;;;;;;36.73;18.43;;;11.30;99.90;;;;;;10022252;29;20246;-90
2022/11/02 06:02:44;;;;;;;39.67;23.37;;;10.90;99.90;;;;;;10035005;29;20238;-90
2022/11/02 06:07:47;;;;;;;47.13;24.40;;;10.60;99.90;;;;;;9999314;29;20249;-90
2022/11/02 06:12:57;;;;;;;38.10;22.30;;;10.70;99.90;;;;;;9999331;29;20263;-90
2022/11/02 06:17:59;;;;;;;27.20;17.40;;;11.50;99.90;;;;;;10022858;29;20244;-89
2022/11/02 06:23:02;;;;;;;35.13;20.47;;;11.30;99.90;;;;;;10053421;29;20249;-90
2022/11/02 06:28:05;;;;;;;25.73;17.43;;;11.30;99.90;;;;;;10050486;29;20249;-89
2022/11/02 06:33:07;;;;;;;24.57;17.73;;;11.40;99.90;;;;;;10015370;29;20317;-90
2022/11/02 06:38:11;;;;;;;33.50;19.57;;;11.10;99.90;;;;;;10052941;29;20245;-89
2022/11/02 06:43:14;;;;;;;31.53;19.70;;;10.00;99.90;;;;;;10053029;29;20245;-89
2022/11/02 06:48:19;;;;;;;30.90;18.83;;;10.00;99.90;;;;;;10020463;29;20298;-90
2022/11/02 06:53:21;;;;;;;31.77;18.87;;;9.60;99.90;;;;;;10051583;29;20273;-89
2022/11/02 06:58:25;;;;;;;36.37;19.97;;;9.50;99.90;;;;;;10050782;29;20238;-89
2022/11/02 07:03:28;;;;;;;35.60;19.97;;;9.40;99.90;;;;;;10048116;29;20241;-89
2022/11/02 07:08:31;;;;;;;32.00;18.03;;;9.50;99.90;;;;;;10031970;29;20210;-89
2022/11/02 07:13:34;;;;;;;34.50;18.17;;;9.70;99.90;;;;;;10049386;29;20258;-90
2022/11/02 07:18:37;;;;;;;25.93;16.30;;;9.60;99.90;;;;;;10034927;29;20241;-90
2022/11/02 07:23:39;;;;;;;41.97;20.30;;;10.00;99.90;;;;;;10015889;29;20772;-90
2022/11/02 07:28:45;;;;;;;30.47;18.70;;;9.70;99.90;;;;;;10035069;29;20254;-90
2022/11/02 07:33:48;;;;;;;30.00;15.87;;;10.10;99.90;;;;;;10006424;29;20658;-89
2022/11/02 07:38:50;;;;;;;30.77;13.50;;;10.10;99.90;;;;;;10030108;29;20231;-96
2022/11/02 07:44:32;;;;;;;15.63;10.70;;;13.10;99.90;;;;;;10026609;24;20243;-85
2022/11/02 07:49:35;;;;;;;14.43;9.93;;;11.50;99.90;;;;;;10059503;29;20313;-84
2022/11/02 07:54:37;;;;;;;20.80;12.00;;;11.60;99.90;;;;;;10059917;29;20247;-84
2022/11/02 07:59:46;;;;;;;24.63;10.60;;;11.10;99.90;;;;;;10040052;29;20247;-84
2022/11/02 08:04:48;;;;;;;34.40;9.40;;;13.40;99.90;;;;;;10042249;29;20766;-85
2022/11/02 08:09:50;;;;;;;22.07;9.40;;;14.90;99.90;;;;;;10040443;29;20261;-86
2022/11/02 08:14:53;;;;;;;15.73;8.73;;;14.40;99.90;;;;;;10034713;29;20249;-85
2022/11/02 08:19:56;;;;;;;21.10;9.57;;;14.30;99.90;;;;;;10058828;29;20244;-85
2022/11/02 08:24:59;;;;;;;16.37;8.67;;;14.50;99.90;;;;;;10042135;29;20740;-86
2022/11/02 08:30:02;;;;;;;17.93;9.50;;;14.30;99.90;;;;;;10040580;29;20345;-86
2022/11/02 08:35:05;;;;;;;20.70;10.13;;;16.30;99.90;;;;;;10024376;29;20279;-85
2022/11/02 08:40:09;;;;;;;17.43;10.97;;;15.80;99.90;;;;;;10057259;29;20305;-86
2022/11/02 08:45:11;;;;;;;17.37;9.20;;;14.30;99.90;;;;;;10057214;29;20265;-86
2022/11/02 08:50:14;;;;;;;15.43;9.37;;;15.00;99.90;;;;;;10051164;29;20265;-84
2022/11/02 08:55:16;;;;;;;17.13;9.27;;;16.00;99.90;;;;;;10055044;29;20305;-86
2022/11/02 09:00:21;;;;;;;19.03;10.43;;;15.80;99.90;;;;;;10039093;29;20790;-86
2022/11/02 09:05:24;;;;;;;21.90;8.70;;;17.00;99.90;;;;;;10002699;29;20214;-85
2022/11/02 09:10:28;;;;;;;15.90;10.10;;;16.70;99.90;;;;;;10024075;29;20261;-84
2022/11/02 09:15:34;;;;;;;12.83;8.23;;;;;;;;;;10056790;29;20246;-85
2022/11/02 09:20:37;;;;;;;12.27;7.07;;;16.70;99.90;;;;;;10039970;29;20321;-85
2022/11/02 09:25:39;;;;;;;13.93;9.93;;;15.60;99.90;;;;;;10028553;29;20775;-85
2022/11/02 09:30:42;;;;;;;14.17;8.67;;;17.50;99.90;;;;;;10035891;29;20276;-83
2022/11/02 09:35:47;;;;;;;10.20;6.13;;;17.70;99.90;;;;;;10037784;29;20306;-83
2022/11/02 09:41:11;;;;;;;15.77;9.00;;;17.20;99.90;;;;;;10038135;29;20278;-84
2022/11/02 09:46:45;;;;;;;15.87;9.23;;;18.00;99.90;;;;;;10023152;29;20301;-85
2022/11/02 09:51:49;;;;;;;12.47;7.60;;;18.30;99.90;;;;;;10035332;29;20309;-85
2022/11/02 09:56:56;;;;;;;15.93;8.53;;;16.50;99.90;;;;;;10054582;29;20286;-84
2022/11/02 10:02:21;;;;;;;14.60;7.70;;;16.90;99.90;;;;;;10053465;29;20285;-84
2022/11/02 10:07:47;;;;;;;14.83;7.60;;;17.10;99.90;;;;;;10053872;29;20414;-85
2022/11/02 10:13:21;;;;;;;10.47;3.87;;;17.80;99.90;;;;;;10035908;29;20272;-84
2022/11/02 10:18:26;;;;;;;12.27;4.47;;;16.50;99.90;;;;;;10054007;29;20305;-84
2022/11/02 10:23:51;;;;;;;11.90;5.63;;;16.40;99.90;;;;;;10053606;29;20316;-84
2022/11/02 10:29:04;;;;;;;12.17;6.27;;;17.40;99.90;;;;;;10051467;29;20287;-84
2022/11/02 10:34:19;;;;;;;11.47;4.20;;;17.20;99.90;;;;;;10034021;29;20265;-83
2022/11/02 10:39:45;;;;;;;10.57;8.50;;;17.30;99.90;;;;;;10029527;29;20302;-84
2022/11/02 10:45:00;;;;;;;11.37;6.17;;;18.30;99.90;;;;;;10039358;29;20292;-84
2022/11/02 10:50:13;;;;;;;11.07;4.53;;;17.10;99.90;;;;;;10052107;29;20310;-85
2022/11/02 10:55:18;;;;;;;13.50;8.00;;;17.70;99.90;;;;;;10028491;29;20249;-84
2022/11/02 11:00:22;;;;;;;5.17;3.53;;;18.20;99.90;;;;;;10024047;29;20699;-85
2022/11/02 11:05:24;;;;;;;14.10;7.37;;;17.50;99.90;;;;;;10037001;29;20312;-85
2022/11/02 11:10:30;;;;;;;12.37;8.50;;;17.40;99.90;;;;;;10048543;29;20321;-85
2022/11/02 11:15:33;;;;;;;17.00;6.23;;;17.90;99.90;;;;;;10033332;29;20289;-84
2022/11/02 11:20:54;;;;;;;7.47;3.43;;;17.10;99.90;;;;;;10037986;29;20252;-85
2022/11/02 11:26:08;;;;;;;14.67;8.70;;;17.40;99.90;;;;;;10050087;29;20353;-85
2022/11/02 11:31:16;;;;;;;9.73;6.37;;;18.00;99.90;;;;;;10035180;29;20331;-85
2022/11/02 11:36:26;;;;;;;9.00;5.87;;;18.60;99.90;;;;;;10033253;29;20214;-84
2022/11/02 11:41:31;;;;;;;10.17;6.90;;;17.40;99.90;;;;;;10034452;29;20316;-84
2022/11/02 11:46:42;;;;;;;13.00;6.53;;;17.90;99.90;;;;;;10034024;29;20281;-85
2022/11/02 11:51:51;;;;;;;9.93;6.67;;;18.40;99.90;;;;;;10047543;29;20288;-86
2022/11/02 11:56:59;;;;;;;9.60;4.53;;;18.40;99.90;;;;;;10028570;29;20269;-85
2022/11/02 12:02:01;;;;;;;7.77;5.93;;;18.10;99.90;;;;;;10032076;29;20253;-83
2022/11/02 12:07:14;;;;;;;8.33;6.07;;;18.10;99.90;;;;;;10050660;29;20305;-84
2022/11/02 12:12:40;;;;;;;9.97;6.53;;;18.80;99.90;;;;;;10050980;29;20782;-85
2022/11/02 12:17:53;;;;;;;11.57;7.53;;;18.30;99.90;;;;;;10059757;24;20330;-86
2022/11/02 12:23:32;;;;;;;7.30;4.80;;;18.80;99.90;;;;;;10012860;29;20767;-86
2022/11/02 12:28:56;;;;;;;11.87;5.47;;;17.80;99.90;;;;;;10018939;29;20291;-86
2022/11/02 12:34:04;;;;;;;12.67;4.13;;;18.40;99.90;;;;;;10036741;29;20326;-85
2022/11/02 12:39:12;;;;;;;8.77;6.33;;;18.50;99.90;;;;;;10015857;29;20672;-86
2022/11/02 12:44:20;;;;;;;12.23;6.70;;;18.60;99.90;;;;;;10002232;29;20250;-84
2022/11/02 12:49:46;;;;;;;8.57;6.00;;;18.70;99.90;;;;;;10018754;29;20253;-85
2022/11/02 12:54:54;;;;;;;8.80;5.57;;;18.90;99.90;;;;;;10018351;29;20660;-85
2022/11/02 13:00:04;;;;;;;9.23;4.73;;;18.70;99.90;;;;;;10018650;29;20687;-85
2022/11/02 13:05:22;;;;;;;8.73;4.97;;;18.10;99.90;;;;;;10038820;29;20724;-84
2022/11/02 13:10:29;;;;;;;11.60;5.77;;;18.70;99.90;;;;;;10051087;29;20260;-85
2022/11/02 13:15:36;;;;;;;6.40;2.40;;;18.70;99.90;;;;;;10039669;29;20244;-87
2022/11/02 13:20:56;;;;;;;13.43;4.00;;;18.20;99.90;;;;;;10016770;29;20805;-87
2022/11/02 13:26:09;;;;;;;12.10;4.50;;;18.00;99.90;;;;;;10008129;29;20318;-86
2022/11/02 13:31:36;;;;;;;8.37;2.97;;;18.30;99.90;;;;;;10039672;29;20324;-86
2022/11/02 13:36:39;;;;;;;4.97;2.27;;;17.00;99.90;;;;;;10030098;29;20628;-87
2022/11/02 13:42:06;;;;;;;9.20;5.43;;;16.40;99.90;;;;;;10015162;29;20254;-86
2022/11/02 13:47:17;;;;;;;7.87;4.60;;;17.70;99.90;;;;;;10012327;29;20251;-86
2022/11/02 13:52:37;;;;;;;7.53;4.93;;;17.50;99.90;;;;;;10012699;29;20342;-87
2022/11/02 13:57:44;;;;;;;9.70;4.93;;;18.10;99.90;;;;;;10016598;29;20302;-88
2022/11/02 14:02:46;;;;;;;6.23;4.80;;;17.70;99.90;;;;;;10017254;29;20256;-87
2022/11/02 14:07:50;;;;;;;12.30;2.53;;;17.90;99.90;;;;;;10033792;29;20306;-88
2022/11/02 14:12:52;;;;;;;6.57;5.40;;;16.00;99.90;;;;;;10015315;29;20269;-86
2022/11/02 14:18:00;;;;;;;6.90;2.43;;;16.60;99.90;;;;;;10010692;29;20265;-86
2022/11/02 14:23:13;;;;;;;8.47;2.07;;;17.40;99.90;;;;;;10014391;29;20250;-86
2022/11/02 14:28:19;;;;;;;7.43;2.00;;;16.80;99.90;;;;;;9998780;29;20293;-85
2022/11/02 14:33:41;;;;;;;8.43;2.40;;;16.30;99.90;;;;;;10015238;29;20321;-86
2022/11/02 14:39:08;;;;;;;7.70;2.60;;;16.40;99.90;;;;;;10013837;29;20315;-85
2022/11/02 14:44:37;;;;;;;17.07;3.20;;;16.70;99.90;;;;;;10007290;29;20651;-86
2022/11/02 14:49:49;;;;;;;40.60;4.73;;;16.60;99.90;;;;;;9968642;29;20308;-86
2022/11/02 14:54:53;;;;;;;4.93;2.30;;;15.60;99.90;;;;;;10013040;29;20261;-85
2022/11/02 15:00:00;;;;;;;6.67;2.33;;;15.30;99.90;;;;;;10035593;29;20248;-86
2022/11/02 15:05:06;;;;;;;49.63;7.83;;;15.50;99.90;;;;;;10021657;29;20248;-87
2022/11/02 15:10:14;;;;;;;31.20;6.80;;;15.50;99.90;;;;;;10012987;29;20302;-86
2022/11/02 15:15:35;;;;;;;4.80;2.27;;;16.10;99.90;;;;;;9996786;29;20273;-87
2022/11/02 15:20:37;;;;;;;6.97;2.10;;;15.00;99.90;;;;;;9981827;29;20507;-86
2022/11/02 15:25:50;;;;;;;12.57;2.50;;;14.30;99.90;;;;;;9995826;29;20261;-87
2022/11/02 15:30:58;;;;;;;7.90;2.50;;;14.10;99.90;;;;;;10040349;29;20325;-86
2022/11/02 15:36:03;;;;;;;11.53;3.37;;;14.00;99.90;;;;;;10028795;29;20245;-86
2022/11/02 15:41:34;;;;;;;8.80;2.60;;;14.80;99.90;;;;;;10012081;29;20294;-86
2022/11/02 15:47:04;;;;;;;10.17;2.80;;;12.90;99.90;;;;;;9989807;29;20239;-89
2022/11/02 15:52:48;;;;;;;5.73;2.77;;;12.60;99.90;;;;;;10020881;29;20676;-87
2022/11/02 15:58:19;;;;;;;9.70;3.80;;;12.20;99.90;;;;;;10051482;29;20245;-86
2022/11/02 16:03:22;;;;;;;10.93;4.57;;;11.50;99.90;;;;;;10012686;29;20281;-86
2022/11/02 16:08:32;;;;;;;16.87;9.37;;;11.40;99.90;;;;;;10003499;29;20303;-85
2022/11/02 16:13:35;;;;;;;20.73;12.27;;;11.60;99.90;;;;;;10019771;29;20257;-85
2022/11/02 16:18:57;;;;;;;11.47;3.30;;;11.80;99.90;;;;;;10020398;29;20265;-85
2022/11/02 16:24:00;;;;;;;8.17;3.47;;;11.80;99.90;;;;;;10003260;29;20250;-85
2022/11/02 16:29:07;;;;;;;12.47;3.77;;;11.80;99.90;;;;;;10001997;29;20383;-86
2022/11/02 16:34:30;;;;;;;8.07;4.67;;;11.40;99.90;;;;;;10001113;29;20727;-86
2022/11/02 16:39:36;;;;;;;6.10;3.97;;;11.20;99.90;;;;;;10002652;29;20292;-86
2022/11/02 16:44:39;;;;;;;12.20;4.90;;;11.10;99.90;;;;;;10017962;29;20247;-85
2022/11/02 16:49:50;;;;;;;25.30;12.10;;;11.00;99.90;;;;;;10017003;29;20298;-85
2022/11/02 16:54:53;;;;;;;27.17;13.43;;;11.20;99.90;;;;;;9980856;29;20299;-86
2022/11/02 16:59:58;;;;;;;26.77;11.43;;;11.20;99.90;;;;;;9964863;29;20304;-86
2022/11/02 17:05:02;;;;;;;26.73;11.00;;;11.20;99.90;;;;;;10018758;29;20855;-85
2022/11/02 17:10:24;;;;;;;21.50;11.10;;;11.40;99.90;;;;;;10037165;29;20330;-85
2022/11/02 17:15:33;;;;;;;14.23;7.70;;;11.50;99.90;;;;;;10029922;29;20319;-86
2022/11/02 17:20:37;;;;;;;24.37;9.97;;;12.30;99.90;;;;;;10023321;29;20276;-86
2022/11/02 17:25:40;;;;;;;24.90;12.13;;;12.30;99.90;;;;;;10035789;29;20249;-86
2022/11/02 17:30:44;;;;;;;17.07;7.53;;;11.80;99.90;;;;;;10000835;29;20248;-86
2022/11/02 17:35:48;;;;;;;13.57;5.87;;;12.70;99.90;;;;;;10005414;29;20322;-85
2022/11/02 17:40:52;;;;;;;12.33;6.80;;;13.40;99.90;;;;;;10039488;29;20253;-87
2022/11/02 17:45:56;;;;;;;10.30;5.17;;;;;;;;;;10023728;29;20695;-85
2022/11/02 17:50:58;;;;;;;10.10;4.77;;;15.60;99.90;;;;;;10003716;29;20255;-86
2022/11/02 17:56:01;;;;;;;7.17;4.23;;;17.40;99.90;;;;;;10001710;29;20345;-85
2022/11/02 18:01:04;;;;;;;9.70;4.83;;;17.40;99.90;;;;;;10045875;29;20688;-87
2022/11/02 18:06:07;;;;;;;12.60;4.57;;;16.80;99.90;;;;;;10012640;29;20299;-87
2022/11/02 18:11:09;;;;;;;7.80;4.47;;;15.60;99.90;;;;;;10034195;29;20306;-86
2022/11/02 18:16:12;;;;;;;14.17;5.13;;;14.30;99.90;;;;;;10005422;29;20758;-85
2022/11/02 18:21:14;;;;;;;6.30;4.80;;;14.40;99.90;;;;;;10034790;29;20713;-86
2022/11/02 18:26:17;;;;;;;13.23;4.63;;;16.50;99.90;;;;;;10000643;29;20703;-86
2022/11/02 18:31:19;;;;;;;10.53;4.47;;;14.90;99.90;;;;;;9999544;29;20280;-86
2022/11/02 18:36:22;;;;;;;15.63;4.23;;;14.20;99.90;;;;;;10008675;29;20317;-86
2022/11/02 18:41:30;;;;;;;9.83;4.47;;;12.30;99.90;;;;;;9999230;29;20300;-86
2022/11/02 18:46:33;;;;;;;15.33;7.33;;;11.90;99.90;;;;;;9993229;29;20295;-86
2022/11/02 18:51:35;;;;;;;13.70;6.10;;;11.50;99.90;;;;;;9996622;29;20252;-86
2022/11/02 18:56:56;;;;;;;20.50;8.16;;;11.80;99.90;;;;;;9922458;29;10000899;-85
2022/11/02 19:01:59;;;;;;;19.00;7.47;;;13.00;99.90;;;;;;10007274;29;20451;-86
2022/11/02 19:12:26;;;;;;;22.30;11.50;;;11.40;99.90;;;;;;9994622;29;20270;-86
2022/11/02 19:17:29;;;;;;;22.17;11.47;;;10.60;99.90;;;;;;10002721;29;20269;-85
2022/11/02 19:22:32;;;;;;;22.73;10.80;;;10.30;99.90;;;;;;10010192;29;20312;-86
2022/11/02 19:27:34;;;;;;;31.87;13.40;;;;;;;;;;10011592;29;20301;-86
2022/11/02 19:32:37;;;;;;;27.07;12.80;;;9.50;99.90;;;;;;9981619;29;20339;-86
2022/11/02 19:37:39;;;;;;;23.10;13.83;;;9.50;99.90;;;;;;9986570;29;20259;-86
2022/11/02 19:42:42;;;;;;;28.00;12.57;;;9.50;99.90;;;;;;9984225;29;20747;-86
2022/11/02 19:47:44;;;;;;;20.97;11.50;;;9.50;99.90;;;;;;9992925;29;20877;-86
2022/11/02 19:52:48;;;;;;;13.50;8.47;;;9.40;99.90;;;;;;9988009;29;20316;-85
2022/11/02 19:57:53;;;;;;;20.07;10.60;;;11.60;99.90;;;;;;9978794;29;20297;-86
2022/11/02 20:02:56;;;;;;;20.27;9.40;;;10.40;99.90;;;;;;10010473;29;21023;-85
2022/11/02 20:07:58;;;;;;;22.07;10.30;;;10.80;99.90;;;;;;9995317;29;20306;-86
2022/11/02 20:13:01;;;;;;;18.13;10.07;;;10.30;99.90;;;;;;9986616;29;20275;-86
2022/11/02 20:18:05;;;;;;;23.70;9.80;;;9.90;99.90;;;;;;10025999;29;20276;-86
2022/11/02 20:23:20;;;;;;;21.53;10.60;;;9.70;99.90;;;;;;9968692;29;20255;-86
2022/11/02 20:28:23;;;;;;;18.67;9.23;;;9.20;99.90;;;;;;10006655;29;20242;-86
2022/11/02 20:33:25;;;;;;;19.53;10.07;;;9.00;99.90;;;;;;9997088;29;20670;-86
2022/11/02 20:38:29;;;;;;;18.80;9.67;;;8.80;99.90;;;;;;10004491;29;20250;-86
2022/11/02 20:43:31;;;;;;;21.13;10.70;;;8.70;99.90;;;;;;9990838;29;20241;-87
2022/11/02 20:48:34;;;;;;;22.77;12.13;;;;;;;;;;10000517;29;20310;-87
2022/11/02 20:53:37;;;;;;;19.23;11.37;;;7.80;99.90;;;;;;10020422;29;20284;-87
2022/11/02 20:58:39;;;;;;;17.97;11.67;;;7.40;99.90;;;;;;9981243;29;20686;-86
2022/11/02 21:03:42;;;;;;;18.60;11.90;;;7.30;99.90;;;;;;9985225;29;20720;-85
2022/11/02 21:08:45;;;;;;;27.50;12.33;;;7.20;99.90;;;;;;9987526;29;20262;-86
2022/11/02 21:13:50;;;;;;;24.70;12.90;;;7.10;99.90;;;;;;9986602;29;20703;-86
2022/11/02 21:18:54;;;;;;;36.57;15.47;;;7.00;99.90;;;;;;9975534;29;20322;-86
2022/11/02 21:23:57;;;;;;;34.33;16.60;;;7.00;99.90;;;;;;9980301;29;20250;-86
2022/11/02 21:29:00;;;;;;;22.80;12.07;;;7.10;99.90;;;;;;9980670;29;20496;-86
2022/11/02 21:34:03;;;;;;;24.50;11.63;;;7.20;99.90;;;;;;9979579;29;20720;-88
2022/11/02 21:39:06;;;;;;;25.27;10.73;;;7.50;99.90;;;;;;9992007;29;20250;-87
2022/11/02 21:44:10;;;;;;;20.20;11.23;;;7.50;99.90;;;;;;9970750;29;20247;-84
2022/11/02 21:49:12;;;;;;;21.57;10.67;;;7.50;99.90;;;;;;9929321;29;20700;-86
2022/11/02 21:54:15;;;;;;;22.80;11.63;;;7.40;99.90;;;;;;9979292;29;20856;-85
2022/11/02 21:59:17;;;;;;;21.80;10.60;;;7.40;99.90;;;;;;9958405;29;20239;-85
2022/11/02 22:04:27;;;;;;;21.47;11.33;;;7.30;99.90;;;;;;9994696;29;20255;-88
2022/11/02 22:09:30;;;;;;;28.83;12.73;;;7.10;99.90;;;;;;9968046;29;20259;-86
2022/11/02 22:14:32;;;;;;;24.03;11.47;;;7.00;99.90;;;;;;9942306;29;20786;-86
2022/11/02 22:19:35;;;;;;;20.57;10.07;;;7.10;99.90;;;;;;10008801;29;20258;-86
2022/11/02 22:24:37;;;;;;;19.37;11.30;;;7.10;99.90;;;;;;9948944;29;20258;-86
2022/11/02 22:29:48;;;;;;;16.20;9.70;;;6.90;99.90;;;;;;9945973;29;20963;-86
2022/11/02 22:34:50;;;;;;;23.57;10.30;;;6.60;99.90;;;;;;10021407;24;20273;-85
2022/11/02 22:39:53;;;;;;;19.53;9.70;;;6.60;99.90;;;;;;10026553;29;20250;-85
2022/11/02 22:44:57;;;;;;;20.63;11.20;;;6.30;99.90;;;;;;10021967;29;20242;-85
2022/11/02 22:49:59;;;;;;;26.73;11.40;;;6.20;99.90;;;;;;10052480;29;20237;-86
2022/11/02 22:55:03;;;;;;;23.53;11.50;;;6.00;99.90;;;;;;10036560;29;20277;-85
2022/11/02 23:00:05;;;;;;;19.63;10.77;;;5.90;99.90;;;;;;10040986;29;20238;-85
2022/11/02 23:05:08;;;;;;;24.47;11.00;;;5.70;99.90;;;;;;10025418;29;20237;-84
2022/11/02 23:11:20;;;;;;;24.90;13.27;;;5.40;99.90;;;;;;10049932;29;20645;-85
2022/11/02 23:15:33;;;;;;;27.17;12.80;;;5.40;99.90;;;;;;10050924;29;21029;-85
2022/11/02 23:20:36;;;;;;;28.60;14.73;;;5.30;99.90;;;;;;10044382;29;20273;-85
2022/11/02 23:25:38;;;;;;;32.53;15.33;;;;;;;;;;10002555;29;20295;-86
2022/11/02 23:36:09;;;;;;;34.67;16.90;;;5.10;99.90;;;;;;10013388;29;20743;-85
2022/11/02 23:41:12;;;;;;;29.50;15.80;;;5.00;99.90;;;;;;10037591;29;20245;-85
2022/11/02 23:46:16;;;;;;;31.07;16.43;;;4.70;99.90;;;;;;10048212;29;20241;-85
2022/11/02 23:56:42;;;;;;;27.63;15.23;;;4.60;99.90;;;;;;10051133;29;20791;-84
